sensor_id;sensor_type;location;lat;lon;timestamp;temperature;humidity
31369;DHT22;18004;48.416;10.066;2022-08-04T00:00:46;20.90;71.00
31369;DHT22;18004;48.416;10.066;2022-08-04T00:06:03;20.80;72.80
31369;DHT22;18004;48.416;10.066;2022-08-04T00:11:01;20.80;68.80
31369;DHT22;18004;48.416;10.066;2022-08-04T00:13:30;20.80;67.70
31369;DHT22;18004;48.416;10.066;2022-08-04T00:16:03;20.70;66.40
31369;DHT22;18004;48.416;10.066;2022-08-04T00:18:38;20.70;66.00
31369;DHT22;18004;48.416;10.066;2022-08-04T00:21:05;20.70;66.00
31369;DHT22;18004;48.416;10.066;2022-08-04T00:23:34;20.60;65.90
31369;DHT22;18004;48.416;10.066;2022-08-04T00:26:01;20.60;65.80
31369;DHT22;18004;48.416;10.066;2022-08-04T00:28:28;20.50;65.80
31369;DHT22;18004;48.416;10.066;2022-08-04T00:30:54;20.50;65.80
31369;DHT22;18004;48.416;10.066;2022-08-04T00:33:21;20.50;65.80
31369;DHT22;18004;48.416;10.066;2022-08-04T00:35:48;20.40;65.70
31369;DHT22;18004;48.416;10.066;2022-08-04T00:38:15;20.30;65.90
31369;DHT22;18004;48.416;10.066;2022-08-04T00:43:38;20.30;65.60
31369;DHT22;18004;48.416;10.066;2022-08-04T00:49:22;20.10;66.80
31369;DHT22;18004;48.416;10.066;2022-08-04T00:54:45;20.00;66.80
31369;DHT22;18004;48.416;10.066;2022-08-04T01:00:07;19.90;65.30
31369;DHT22;18004;48.416;10.066;2022-08-04T01:10:34;19.80;68.70
31369;DHT22;18004;48.416;10.066;2022-08-04T01:16:03;19.40;74.10
31369;DHT22;18004;48.416;10.066;2022-08-04T01:24:56;19.20;77.80
31369;DHT22;18004;48.416;10.066;2022-08-04T01:27:19;19.10;80.20
31369;DHT22;18004;48.416;10.066;2022-08-04T01:29:55;19.00;80.90
31369;DHT22;18004;48.416;10.066;2022-08-04T01:32:47;19.00;80.20
31369;DHT22;18004;48.416;10.066;2022-08-04T01:38:34;18.90;82.20
31369;DHT22;18004;48.416;10.066;2022-08-04T01:41:13;18.90;84.00
31369;DHT22;18004;48.416;10.066;2022-08-04T01:43:44;18.80;83.20
31369;DHT22;18004;48.416;10.066;2022-08-04T01:46:12;18.80;85.30
31369;DHT22;18004;48.416;10.066;2022-08-04T01:48:39;18.70;85.40
31369;DHT22;18004;48.416;10.066;2022-08-04T01:51:08;18.80;85.40
31369;DHT22;18004;48.416;10.066;2022-08-04T01:53:36;18.80;83.50
31369;DHT22;18004;48.416;10.066;2022-08-04T01:56:03;18.90;84.80
31369;DHT22;18004;48.416;10.066;2022-08-04T01:58:32;18.90;85.50
31369;DHT22;18004;48.416;10.066;2022-08-04T02:01:09;18.90;85.40
31369;DHT22;18004;48.416;10.066;2022-08-04T02:03:38;18.90;83.20
31369;DHT22;18004;48.416;10.066;2022-08-04T02:11:28;19.00;82.90
31369;DHT22;18004;48.416;10.066;2022-08-04T02:14:22;19.00;83.40
31369;DHT22;18004;48.416;10.066;2022-08-04T02:22:21;19.00;80.90
31369;DHT22;18004;48.416;10.066;2022-08-04T02:25:03;19.00;83.40
31369;DHT22;18004;48.416;10.066;2022-08-04T02:27:40;18.90;83.60
31369;DHT22;18004;48.416;10.066;2022-08-04T02:30:08;19.00;81.70
31369;DHT22;18004;48.416;10.066;2022-08-04T02:32:35;18.90;81.70
31369;DHT22;18004;48.416;10.066;2022-08-04T02:35:13;18.90;83.10
31369;DHT22;18004;48.416;10.066;2022-08-04T02:37:47;18.90;84.00
31369;DHT22;18004;48.416;10.066;2022-08-04T02:40:19;18.70;85.80
31369;DHT22;18004;48.416;10.066;2022-08-04T02:42:46;18.60;89.60
31369;DHT22;18004;48.416;10.066;2022-08-04T02:45:12;18.50;90.30
31369;DHT22;18004;48.416;10.066;2022-08-04T02:47:41;18.40;90.90
31369;DHT22;18004;48.416;10.066;2022-08-04T02:50:11;18.40;92.60
31369;DHT22;18004;48.416;10.066;2022-08-04T02:52:38;18.10;95.40
31369;DHT22;18004;48.416;10.066;2022-08-04T02:55:06;18.10;94.60
31369;DHT22;18004;48.416;10.066;2022-08-04T02:57:35;18.20;94.10
31369;DHT22;18004;48.416;10.066;2022-08-04T03:00:06;18.30;92.60
31369;DHT22;18004;48.416;10.066;2022-08-04T03:22:36;18.20;88.80
31369;DHT22;18004;48.416;10.066;2022-08-04T03:25:28;18.20;88.20
31369;DHT22;18004;48.416;10.066;2022-08-04T03:44:28;18.00;90.90
31369;DHT22;18004;48.416;10.066;2022-08-04T03:55:38;17.30;96.70
31369;DHT22;18004;48.416;10.066;2022-08-04T04:12:51;17.70;94.30
31369;DHT22;18004;48.416;10.066;2022-08-04T04:15:55;17.70;93.60
31369;DHT22;18004;48.416;10.066;2022-08-04T04:21:26;17.60;92.50
31369;DHT22;18004;48.416;10.066;2022-08-04T04:34:49;17.50;93.00
31369;DHT22;18004;48.416;10.066;2022-08-04T04:40:27;17.60;92.70
31369;DHT22;18004;48.416;10.066;2022-08-04T04:48:51;17.70;93.40
31369;DHT22;18004;48.416;10.066;2022-08-04T04:51:27;17.80;93.60
31369;DHT22;18004;48.416;10.066;2022-08-04T04:54:36;17.80;93.70
31369;DHT22;18004;48.416;10.066;2022-08-04T04:57:14;17.90;93.50
31369;DHT22;18004;48.416;10.066;2022-08-04T04:59:52;17.90;93.30
31369;DHT22;18004;48.416;10.066;2022-08-04T05:02:43;18.00;93.60
31369;DHT22;18004;48.416;10.066;2022-08-04T05:05:29;18.10;93.20
31369;DHT22;18004;48.416;10.066;2022-08-04T05:08:26;18.10;93.00
31369;DHT22;18004;48.416;10.066;2022-08-04T05:13:57;18.30;92.80
31369;DHT22;18004;48.416;10.066;2022-08-04T05:21:48;18.50;92.80
31369;DHT22;18004;48.416;10.066;2022-08-04T05:24:17;18.60;93.00
31369;DHT22;18004;48.416;10.066;2022-08-04T05:26:49;18.70;93.40
31369;DHT22;18004;48.416;10.066;2022-08-04T05:29:33;18.70;93.50
31369;DHT22;18004;48.416;10.066;2022-08-04T05:32:04;18.70;93.30
31369;DHT22;18004;48.416;10.066;2022-08-04T05:34:41;18.70;94.00
31369;DHT22;18004;48.416;10.066;2022-08-04T05:37:13;18.80;93.90
31369;DHT22;18004;48.416;10.066;2022-08-04T05:39:53;18.80;94.30
31369;DHT22;18004;48.416;10.066;2022-08-04T05:42:20;18.90;93.90
31369;DHT22;18004;48.416;10.066;2022-08-04T05:44:47;18.90;93.90
31369;DHT22;18004;48.416;10.066;2022-08-04T05:47:14;19.00;93.20
31369;DHT22;18004;48.416;10.066;2022-08-04T05:49:41;19.10;92.90
31369;DHT22;18004;48.416;10.066;2022-08-04T05:52:09;19.10;92.40
31369;DHT22;18004;48.416;10.066;2022-08-04T05:54:36;19.20;92.10
31369;DHT22;18004;48.416;10.066;2022-08-04T05:57:04;19.20;91.80
31369;DHT22;18004;48.416;10.066;2022-08-04T05:59:31;19.30;91.10
31369;DHT22;18004;48.416;10.066;2022-08-04T06:01:59;19.40;90.40
31369;DHT22;18004;48.416;10.066;2022-08-04T06:04:37;19.50;90.50
31369;DHT22;18004;48.416;10.066;2022-08-04T06:07:04;19.50;88.50
31369;DHT22;18004;48.416;10.066;2022-08-04T06:09:30;19.60;86.50
31369;DHT22;18004;48.416;10.066;2022-08-04T06:12:03;19.60;80.70
31369;DHT22;18004;48.416;10.066;2022-08-04T06:14:42;19.70;78.40
31369;DHT22;18004;48.416;10.066;2022-08-04T06:17:13;19.80;76.00
31369;DHT22;18004;48.416;10.066;2022-08-04T06:19:40;19.80;74.20
31369;DHT22;18004;48.416;10.066;2022-08-04T06:22:09;19.90;74.60
31369;DHT22;18004;48.416;10.066;2022-08-04T06:24:38;20.00;75.90
31369;DHT22;18004;48.416;10.066;2022-08-04T06:27:04;20.10;74.30
31369;DHT22;18004;48.416;10.066;2022-08-04T06:29:31;20.20;74.70
31369;DHT22;18004;48.416;10.066;2022-08-04T06:32:04;20.30;75.90
31369;DHT22;18004;48.416;10.066;2022-08-04T06:34:54;20.30;73.60
31369;DHT22;18004;48.416;10.066;2022-08-04T06:37:22;20.40;73.30
31369;DHT22;18004;48.416;10.066;2022-08-04T06:39:49;20.50;73.60
31369;DHT22;18004;48.416;10.066;2022-08-04T06:42:22;20.60;70.90
31369;DHT22;18004;48.416;10.066;2022-08-04T06:44:52;20.60;70.50
31369;DHT22;18004;48.416;10.066;2022-08-04T06:47:20;20.70;71.20
31369;DHT22;18004;48.416;10.066;2022-08-04T06:49:49;20.80;71.50
31369;DHT22;18004;48.416;10.066;2022-08-04T06:52:17;20.80;67.80
31369;DHT22;18004;48.416;10.066;2022-08-04T06:54:49;20.90;68.60
31369;DHT22;18004;48.416;10.066;2022-08-04T06:57:25;21.00;68.70
31369;DHT22;18004;48.416;10.066;2022-08-04T07:00:00;21.10;67.10
31369;DHT22;18004;48.416;10.066;2022-08-04T07:02:29;21.30;66.50
31369;DHT22;18004;48.416;10.066;2022-08-04T07:04:56;21.40;64.00
31369;DHT22;18004;48.416;10.066;2022-08-04T07:07:25;21.60;57.80
31369;DHT22;18004;48.416;10.066;2022-08-04T07:09:51;21.70;60.70
31369;DHT22;18004;48.416;10.066;2022-08-04T07:12:17;21.80;60.20
31369;DHT22;18004;48.416;10.066;2022-08-04T07:14:46;21.80;58.90
31369;DHT22;18004;48.416;10.066;2022-08-04T07:17:14;22.00;59.50
31369;DHT22;18004;48.416;10.066;2022-08-04T07:19:41;22.10;58.60
31369;DHT22;18004;48.416;10.066;2022-08-04T07:22:09;22.30;52.80
31369;DHT22;18004;48.416;10.066;2022-08-04T07:24:36;22.70;51.50
31369;DHT22;18004;48.416;10.066;2022-08-04T07:27:26;22.90;51.30
31369;DHT22;18004;48.416;10.066;2022-08-04T07:29:58;23.30;46.50
31369;DHT22;18004;48.416;10.066;2022-08-04T07:32:23;23.60;42.60
31369;DHT22;18004;48.416;10.066;2022-08-04T07:34:50;23.60;39.80
31369;DHT22;18004;48.416;10.066;2022-08-04T07:37:16;23.80;41.10
31369;DHT22;18004;48.416;10.066;2022-08-04T07:39:46;24.20;39.40
31369;DHT22;18004;48.416;10.066;2022-08-04T07:42:27;24.60;33.80
31369;DHT22;18004;48.416;10.066;2022-08-04T07:45:18;25.00;32.30
31369;DHT22;18004;48.416;10.066;2022-08-04T07:48:16;25.10;28.30
31369;DHT22;18004;48.416;10.066;2022-08-04T07:50:50;25.50;24.90
31369;DHT22;18004;48.416;10.066;2022-08-04T07:53:33;25.30;24.10
31369;DHT22;18004;48.416;10.066;2022-08-04T07:56:13;25.20;25.50
31369;DHT22;18004;48.416;10.066;2022-08-04T08:02:02;25.50;20.40
31369;DHT22;18004;48.416;10.066;2022-08-04T08:04:44;25.90;23.00
31369;DHT22;18004;48.416;10.066;2022-08-04T08:18:42;27.20;17.70
31369;DHT22;18004;48.416;10.066;2022-08-04T10:48:14;34.70;1.00
31369;DHT22;18004;48.416;10.066;2022-08-04T12:26:49;36.80;1.00
31369;DHT22;18004;48.416;10.066;2022-08-04T14:04:15;37.70;1.00
31369;DHT22;18004;48.416;10.066;2022-08-04T14:45:13;37.80;1.00
31369;DHT22;18004;48.416;10.066;2022-08-04T15:04:22;36.60;1.00
31369;DHT22;18004;48.416;10.066;2022-08-04T15:14:38;37.50;1.00
31369;DHT22;18004;48.416;10.066;2022-08-04T15:36:56;37.30;1.00
31369;DHT22;18004;48.416;10.066;2022-08-04T21:58:36;25.70;26.90
31369;DHT22;18004;48.416;10.066;2022-08-04T22:05:21;25.20;31.70
31369;DHT22;18004;48.416;10.066;2022-08-04T22:07:47;25.00;33.40
31369;DHT22;18004;48.416;10.066;2022-08-04T22:14:00;24.90;33.90
31369;DHT22;18004;48.416;10.066;2022-08-04T22:16:29;24.80;35.40
31369;DHT22;18004;48.416;10.066;2022-08-04T22:18:56;24.70;36.80
31369;DHT22;18004;48.416;10.066;2022-08-04T22:41:39;24.60;38.10
31369;DHT22;18004;48.416;10.066;2022-08-04T22:55:12;24.40;39.60
31369;DHT22;18004;48.416;10.066;2022-08-04T22:58:21;24.30;38.80
31369;DHT22;18004;48.416;10.066;2022-08-04T23:01:19;24.10;39.80
31369;DHT22;18004;48.416;10.066;2022-08-04T23:06:57;23.90;41.90
31369;DHT22;18004;48.416;10.066;2022-08-04T23:13:03;23.70;43.70
31369;DHT22;18004;48.416;10.066;2022-08-04T23:15:55;23.60;46.30
31369;DHT22;18004;48.416;10.066;2022-08-04T23:26:59;23.50;46.60
31369;DHT22;18004;48.416;10.066;2022-08-04T23:34:24;23.50;47.90
31369;DHT22;18004;48.416;10.066;2022-08-04T23:37:10;23.40;46.70
31369;DHT22;18004;48.416;10.066;2022-08-04T23:40:28;23.40;48.30
31369;DHT22;18004;48.416;10.066;2022-08-04T23:47:16;23.30;50.20
31369;DHT22;18004;48.416;10.066;2022-08-04T23:50:44;23.30;50.30
31369;DHT22;18004;48.416;10.066;2022-08-04T23:54:16;23.20;50.50
31369;DHT22;18004;48.416;10.066;2022-08-04T23:56:46;23.20;48.10
31369;DHT22;18004;48.416;10.066;2022-08-04T23:59:33;23.20;49.60
